Clement, Illinois
Current Conditions -  °F | °C
As of 8:15 AM on Sunday 25 Jan 2015 (Local Time) from KENL Reporting Station
Overcast Overcast  
Wind Chill: 34°   Ceiling: 3900
Heat Index: 40°   Visibility: 10mi
Dew Point: 35°   Wind: 10mph
Humidity: 82%   Direction: 170°S
Pressure: 29.61"   Gusts: NA
Location:  38.6036°N, 89.2916°W
Report Text: KENL 251415Z AUTO 17009KT 10SM OVC039 05/02 A2961 RMK AO2 T00460018
Loading
Personal Weather Stations






























Interactive Weather Map New forecast layout! Learn more

10-Day Weather Forecast

Advertisements
Track Severe Weather on mobile